createdAt,value
2023-05-14T00:01:52.040Z,22.61
2023-05-14T00:04:21.737Z,20.14
2023-05-14T00:06:50.068Z,21.09
2023-05-14T00:09:19.170Z,21.85
2023-05-14T00:11:46.976Z,20.52
2023-05-14T00:14:15.526Z,21.66
2023-05-14T00:16:43.688Z,20.33
2023-05-14T00:19:12.257Z,21.09
2023-05-14T00:21:40.837Z,22.61
2023-05-14T00:24:08.906Z,20.71
2023-05-14T00:26:37.592Z,21.28
2023-05-14T00:29:06.345Z,21.66
2023-05-14T00:31:34.561Z,21.09
2023-05-14T00:34:02.830Z,21.28
2023-05-14T00:36:31.494Z,21.09
2023-05-14T00:38:59.616Z,22.23
2023-05-14T00:41:28.071Z,20.90
2023-05-14T00:43:56.365Z,22.23
2023-05-14T00:46:24.870Z,20.71
2023-05-14T00:48:54.246Z,21.47
2023-05-14T00:51:22.245Z,22.04
2023-05-14T00:53:51.861Z,23.56
2023-05-14T00:56:22.355Z,22.61
2023-05-14T00:58:52.220Z,21.28
2023-05-14T01:01:22.308Z,22.42
2023-05-14T01:03:54.344Z,21.85
2023-05-14T01:06:58.144Z,24.51
2023-05-14T01:09:47.047Z,22.80
2023-05-14T01:12:33.927Z,23.94
2023-05-14T01:15:23.915Z,23.18
2023-05-14T01:18:09.017Z,22.80
2023-05-14T01:20:38.687Z,23.56
2023-05-14T01:23:08.593Z,23.18
2023-05-14T01:25:38.426Z,23.18
2023-05-14T01:28:23.683Z,22.80
2023-05-14T01:31:04.568Z,22.42
2023-05-14T01:33:37.054Z,22.99
2023-05-14T01:36:07.826Z,22.04
2023-05-14T01:38:37.872Z,21.85
2023-05-14T01:41:07.925Z,21.85
2023-05-14T01:43:39.136Z,21.47
2023-05-14T01:46:08.879Z,22.23
2023-05-14T01:48:37.834Z,21.47
2023-05-14T01:51:07.695Z,20.14
2023-05-14T01:53:36.605Z,21.47
2023-05-14T01:56:07.125Z,20.52
2023-05-14T01:58:37.298Z,22.61
2023-05-14T02:01:07.096Z,19.76
2023-05-14T02:03:37.008Z,20.33
2023-05-14T02:06:07.043Z,22.61
2023-05-14T02:08:37.027Z,21.66
2023-05-14T02:11:06.914Z,19.95
2023-05-14T02:13:37.128Z,19.95
2023-05-14T02:16:07.451Z,20.14
2023-05-14T02:18:37.424Z,20.14
2023-05-14T02:21:07.440Z,20.33
2023-05-14T02:23:42.007Z,20.14
2023-05-14T02:26:12.374Z,18.62
2023-05-14T02:28:42.314Z,19.19
2023-05-14T02:31:12.204Z,19.38
2023-05-14T02:33:42.316Z,18.43
2023-05-14T02:36:12.338Z,18.62
2023-05-14T02:38:42.287Z,19.57
2023-05-14T02:41:12.094Z,18.24
2023-05-14T02:43:42.041Z,19.57
2023-05-14T02:46:11.835Z,19.00
2023-05-14T02:48:41.928Z,18.62
2023-05-14T02:51:12.519Z,18.62
2023-05-14T02:53:43.065Z,18.24
2023-05-14T02:56:12.895Z,18.43
2023-05-14T02:58:42.932Z,16.91
2023-05-14T03:01:12.821Z,19.19
2023-05-14T03:03:43.602Z,16.91
2023-05-14T03:06:13.667Z,17.10
2023-05-14T03:08:43.676Z,17.10
2023-05-14T03:11:13.511Z,17.10
2023-05-14T03:13:43.454Z,18.05
2023-05-14T03:16:13.402Z,16.34
2023-05-14T03:18:43.377Z,17.10
2023-05-14T03:21:13.188Z,17.29
2023-05-14T03:23:42.927Z,17.29
2023-05-14T03:26:12.850Z,16.15
2023-05-14T03:28:43.019Z,15.20
2023-05-14T03:31:12.908Z,15.96
2023-05-14T03:33:42.760Z,14.63
2023-05-14T03:36:12.631Z,14.44
2023-05-14T03:38:42.501Z,15.20
2023-05-14T03:41:12.421Z,14.44
2023-05-14T03:43:42.435Z,14.25
2023-05-14T03:46:12.265Z,14.82
2023-05-14T03:48:42.699Z,14.06
2023-05-14T03:51:12.628Z,14.82
2023-05-14T03:53:42.481Z,13.30
2023-05-14T03:56:12.245Z,15.20
2023-05-14T03:58:42.720Z,13.87
2023-05-14T04:01:12.760Z,13.49
2023-05-14T04:03:42.843Z,14.25
2023-05-14T04:06:12.790Z,14.82
2023-05-14T04:08:42.635Z,14.06
2023-05-14T04:11:12.579Z,14.44
2023-05-14T04:13:42.608Z,14.63
2023-05-14T04:16:12.552Z,15.01
2023-05-14T04:18:42.498Z,15.77
2023-05-14T04:21:12.512Z,15.39
2023-05-14T04:23:40.889Z,17.86
2023-05-14T04:26:09.085Z,14.44
2023-05-14T04:28:37.758Z,15.39
2023-05-14T04:31:06.011Z,16.15
2023-05-14T04:33:34.565Z,15.58
2023-05-14T04:36:03.020Z,14.82
2023-05-14T04:38:31.969Z,16.15
2023-05-14T04:41:00.143Z,16.72
2023-05-14T04:43:28.121Z,16.34
2023-05-14T04:45:56.561Z,15.58
2023-05-14T04:48:24.954Z,14.25
2023-05-14T04:50:53.360Z,14.06
2023-05-14T04:53:22.064Z,15.58
2023-05-14T04:55:50.265Z,14.63
2023-05-14T04:58:18.569Z,13.11
2023-05-14T05:00:46.976Z,14.06
2023-05-14T05:03:16.000Z,13.87
2023-05-14T05:05:43.859Z,14.06
2023-05-14T05:08:12.378Z,13.49
2023-05-14T05:10:40.932Z,13.87
2023-05-14T05:13:09.017Z,14.06
2023-05-14T05:15:37.642Z,14.06
2023-05-14T05:18:06.432Z,13.87
2023-05-14T05:20:34.580Z,14.82
2023-05-14T05:23:02.804Z,13.49
2023-05-14T05:25:31.182Z,13.87
2023-05-14T05:27:59.592Z,13.68
2023-05-14T05:30:28.354Z,14.25
2023-05-14T05:32:57.644Z,14.06
2023-05-14T05:35:24.935Z,13.30
2023-05-14T05:37:53.349Z,12.35
2023-05-14T05:40:22.003Z,13.11
2023-05-14T05:42:50.093Z,15.01
2023-05-14T05:45:18.502Z,13.49
2023-05-14T05:47:47.027Z,13.68
2023-05-14T05:50:15.444Z,14.63
2023-05-14T05:52:44.116Z,14.44
2023-05-14T05:55:12.217Z,15.96
2023-05-14T05:57:40.802Z,14.25
2023-05-14T06:00:13.256Z,14.25
2023-05-14T06:02:41.896Z,13.49
2023-05-14T06:05:12.642Z,12.92
2023-05-14T06:07:42.605Z,13.68
2023-05-14T06:10:12.350Z,13.87
2023-05-14T06:12:42.244Z,15.39
2023-05-14T06:15:12.854Z,14.25
2023-05-14T06:17:42.722Z,14.44
2023-05-14T06:20:13.106Z,13.68
2023-05-14T06:22:43.390Z,13.49
2023-05-14T06:25:13.099Z,14.44
2023-05-14T06:27:43.062Z,11.40
2023-05-14T06:30:13.806Z,14.25
2023-05-14T06:32:43.818Z,12.92
2023-05-14T06:35:13.665Z,14.63
2023-05-14T06:37:42.382Z,14.44
2023-05-14T06:40:12.302Z,12.92
2023-05-14T06:42:39.190Z,13.68
2023-05-14T06:45:08.271Z,12.92
2023-05-14T06:47:36.187Z,13.68
2023-05-14T06:50:05.438Z,13.30
2023-05-14T06:52:33.385Z,13.11
2023-05-14T06:55:01.456Z,12.92
2023-05-14T06:57:29.824Z,13.30
2023-05-14T06:59:58.293Z,12.16
2023-05-14T07:02:26.876Z,12.35
2023-05-14T07:04:55.855Z,11.78
2023-05-14T07:07:24.106Z,11.78
2023-05-14T07:09:52.582Z,11.40
2023-05-14T07:12:20.883Z,12.35
2023-05-14T07:14:50.099Z,12.92
2023-05-14T07:17:17.950Z,11.97
2023-05-14T07:19:47.206Z,11.59
2023-05-14T07:22:14.656Z,12.73
2023-05-14T07:24:43.437Z,11.78
2023-05-14T07:27:12.503Z,11.02
2023-05-14T07:29:40.234Z,11.02
2023-05-14T07:32:09.323Z,11.02
2023-05-14T07:34:37.456Z,11.02
2023-05-14T07:37:06.019Z,10.64
2023-05-14T07:39:34.412Z,11.02
2023-05-14T07:42:03.040Z,10.83
2023-05-14T07:44:31.231Z,10.83
2023-05-14T07:47:01.084Z,10.45
2023-05-14T07:49:29.592Z,10.07
2023-05-14T07:51:58.654Z,10.26
2023-05-14T07:54:26.489Z,9.69
2023-05-14T07:56:54.870Z,10.07
2023-05-14T07:59:23.195Z,10.26
2023-05-14T08:01:51.875Z,10.26
2023-05-14T08:04:20.111Z,10.83
2023-05-14T08:06:49.001Z,9.88
2023-05-14T08:09:17.250Z,10.07
2023-05-14T08:11:45.686Z,9.50
2023-05-14T08:14:13.940Z,9.12
2023-05-14T08:16:42.506Z,8.93
2023-05-14T08:28:04.915Z,9.50
2023-05-14T08:30:34.752Z,8.74
2023-05-14T08:37:46.390Z,7.79
2023-05-14T08:40:18.173Z,8.74
2023-05-14T08:42:52.751Z,7.79
2023-05-14T08:45:34.345Z,7.41
2023-05-14T08:48:09.888Z,7.98
2023-05-14T09:08:43.159Z,7.98
2023-05-14T09:11:20.659Z,7.98
2023-05-14T09:13:50.670Z,7.22
2023-05-14T09:16:27.604Z,6.65
2023-05-14T09:18:59.163Z,7.41
2023-05-14T09:21:32.148Z,7.60
2023-05-14T09:24:03.978Z,8.36
2023-05-14T09:26:35.717Z,6.84
2023-05-14T09:29:05.803Z,7.41
2023-05-14T09:36:02.363Z,7.60
2023-05-14T09:38:33.505Z,7.41
2023-05-14T09:41:04.114Z,7.22
2023-05-14T09:43:33.980Z,6.65
2023-05-14T09:46:04.531Z,7.22
2023-05-14T09:48:34.578Z,7.03
2023-05-14T09:51:05.598Z,7.41
2023-05-14T09:53:35.861Z,7.79
2023-05-14T09:56:05.996Z,7.03
2023-05-14T09:58:36.023Z,7.22
2023-05-14T10:01:20.891Z,7.41
2023-05-14T10:04:23.400Z,7.03
2023-05-14T10:06:53.341Z,7.41
2023-05-14T10:09:28.351Z,7.41
2023-05-14T10:12:12.144Z,7.22
2023-05-14T10:14:50.307Z,7.22
2023-05-14T10:17:22.961Z,7.03
2023-05-14T10:19:57.099Z,7.60
2023-05-14T10:22:35.442Z,6.84
2023-05-14T10:25:07.315Z,7.41
2023-05-14T10:27:37.140Z,7.60
2023-05-14T10:30:12.745Z,6.65
2023-05-14T10:32:44.035Z,6.84
2023-05-14T10:35:25.409Z,7.03
2023-05-14T10:37:56.859Z,6.84
2023-05-14T10:40:28.241Z,7.60
2023-05-14T10:42:59.610Z,7.22
2023-05-14T10:45:30.586Z,7.79
2023-05-14T10:48:00.714Z,7.03
2023-05-14T10:50:31.004Z,7.60
2023-05-14T10:53:01.359Z,6.08
2023-05-14T10:55:31.218Z,6.84
2023-05-14T10:58:05.393Z,6.84
2023-05-14T11:00:35.877Z,6.84
2023-05-14T11:03:07.610Z,6.84
2023-05-14T11:05:40.917Z,7.03
2023-05-14T11:08:12.520Z,7.03
2023-05-14T11:10:43.294Z,7.60
2023-05-14T11:13:13.320Z,6.46
2023-05-14T11:15:48.171Z,7.03
2023-05-14T11:18:33.698Z,6.84
2023-05-14T11:21:03.644Z,7.03
2023-05-14T11:23:33.529Z,8.55
2023-05-14T11:26:03.950Z,7.41
2023-05-14T11:28:31.842Z,7.79
2023-05-14T11:31:00.466Z,7.22
2023-05-14T11:33:29.321Z,7.79
2023-05-14T11:35:57.053Z,6.84
2023-05-14T11:38:25.460Z,6.84
2023-05-14T11:40:59.224Z,7.03
2023-05-14T11:43:29.571Z,7.22
2023-05-14T11:45:59.530Z,7.03
2023-05-14T11:48:29.490Z,7.41
2023-05-14T11:50:59.263Z,7.60
2023-05-14T11:53:31.202Z,7.60
2023-05-14T11:56:03.166Z,7.03
2023-05-14T11:58:33.878Z,7.41
2023-05-14T12:01:03.797Z,7.60
2023-05-14T12:03:35.214Z,7.41
2023-05-14T12:06:10.260Z,7.98
2023-05-14T12:08:39.995Z,10.07
2023-05-14T12:11:09.772Z,7.60
2023-05-14T12:13:40.746Z,8.17
2023-05-14T12:16:10.919Z,7.98
2023-05-14T12:18:41.220Z,8.36
2023-05-14T12:21:12.198Z,7.60
2023-05-14T12:23:42.487Z,7.60
2023-05-14T12:26:12.570Z,7.79
2023-05-14T12:28:43.602Z,8.55
2023-05-14T12:31:15.796Z,8.36
2023-05-14T12:33:45.124Z,7.79
2023-05-14T12:36:21.701Z,6.84
2023-05-14T12:39:03.841Z,7.41
2023-05-14T12:41:33.910Z,7.03
2023-05-14T12:44:07.155Z,6.65
2023-05-14T12:46:35.503Z,7.03
2023-05-14T12:49:07.122Z,6.08
2023-05-14T12:51:37.090Z,7.60
2023-05-14T12:54:05.863Z,7.03
2023-05-14T12:56:33.557Z,7.41
2023-05-14T12:59:01.776Z,6.84
2023-05-14T13:01:30.578Z,6.08
2023-05-14T13:03:59.768Z,7.22
2023-05-14T13:06:29.217Z,6.27
2023-05-14T13:09:00.266Z,6.65
2023-05-14T13:11:31.801Z,6.08
2023-05-14T13:14:03.066Z,6.27
2023-05-14T13:16:31.384Z,6.27
2023-05-14T13:19:00.587Z,6.46
2023-05-14T13:21:29.001Z,6.65
2023-05-14T13:23:58.842Z,5.70
2023-05-14T13:26:28.350Z,6.46
2023-05-14T13:28:58.121Z,6.46
2023-05-14T13:31:27.640Z,6.08
2023-05-14T13:33:58.015Z,6.46
2023-05-14T13:36:27.976Z,7.22
2023-05-14T13:38:56.115Z,6.65
2023-05-14T13:41:26.420Z,7.22
2023-05-14T13:43:56.167Z,7.41
2023-05-14T13:46:26.223Z,6.65
2023-05-14T13:48:56.233Z,6.84
2023-05-14T13:51:26.087Z,7.79
2023-05-14T13:53:56.252Z,7.03
2023-05-14T13:56:26.453Z,7.22
2023-05-14T13:58:56.350Z,7.22
2023-05-14T14:01:26.434Z,7.03
2023-05-14T14:03:56.726Z,7.41
2023-05-14T14:06:27.597Z,6.27
2023-05-14T14:08:57.481Z,7.60
2023-05-14T14:11:27.777Z,7.22
2023-05-14T14:13:58.384Z,7.41
2023-05-14T14:16:30.473Z,7.03
2023-05-14T14:19:00.471Z,7.41
2023-05-14T14:21:31.791Z,7.22
2023-05-14T14:23:59.078Z,6.84
2023-05-14T14:26:28.111Z,7.60
2023-05-14T14:28:55.739Z,7.60
2023-05-14T14:31:24.015Z,7.03
2023-05-14T14:33:52.680Z,6.46
2023-05-14T14:36:20.930Z,7.60
2023-05-14T14:38:49.081Z,6.46
2023-05-14T14:41:17.655Z,6.65
2023-05-14T14:43:45.990Z,8.36
2023-05-14T14:46:14.428Z,6.84
2023-05-14T14:48:43.938Z,6.08
2023-05-14T14:51:13.729Z,6.84
2023-05-14T14:53:41.866Z,6.65
2023-05-14T14:56:10.444Z,6.65
2023-05-14T14:58:38.829Z,6.46
2023-05-14T15:01:07.536Z,6.27
2023-05-14T15:03:36.118Z,6.46
2023-05-14T15:06:04.377Z,7.03
2023-05-14T15:08:32.385Z,6.46
2023-05-14T15:11:00.951Z,5.89
2023-05-14T15:13:29.303Z,6.27
2023-05-14T15:15:57.968Z,6.08
2023-05-14T15:18:26.329Z,6.27
2023-05-14T15:20:54.681Z,6.27
2023-05-14T15:23:23.240Z,5.70
2023-05-14T15:25:51.373Z,6.46
2023-05-14T15:28:19.743Z,6.27
2023-05-14T15:30:48.520Z,6.46
2023-05-14T15:33:19.151Z,5.70
2023-05-14T15:35:49.245Z,5.89
2023-05-14T15:38:19.178Z,6.27
2023-05-14T15:40:50.851Z,5.89
2023-05-14T15:43:20.822Z,5.89
2023-05-14T15:45:50.673Z,5.89
2023-05-14T15:48:20.525Z,6.46
2023-05-14T15:50:51.554Z,6.65
2023-05-14T15:53:21.824Z,5.51
2023-05-14T15:55:52.287Z,6.27
2023-05-14T15:58:21.979Z,6.84
2023-05-14T16:00:51.772Z,6.08
2023-05-14T16:03:20.309Z,6.27
2023-05-14T16:05:48.856Z,6.65
2023-05-14T16:08:17.250Z,6.84
2023-05-14T16:10:47.019Z,6.46
2023-05-14T16:34:57.473Z,6.65
2023-05-14T16:37:27.696Z,5.89
2023-05-14T16:39:57.607Z,6.08
2023-05-14T16:42:27.701Z,6.46
2023-05-14T16:44:57.525Z,6.27
2023-05-14T16:47:27.569Z,6.27
2023-05-14T16:49:57.709Z,6.27
2023-05-14T16:52:27.817Z,5.89
2023-05-14T16:54:57.700Z,6.65
2023-05-14T16:57:27.737Z,5.89
2023-05-14T16:59:57.708Z,6.84
2023-05-14T17:02:27.750Z,6.27
2023-05-14T17:04:58.369Z,6.08
2023-05-14T17:07:28.509Z,6.08
2023-05-14T17:10:00.094Z,6.27
2023-05-14T17:12:30.647Z,6.27
2023-05-14T17:15:04.525Z,6.08
2023-05-14T17:17:35.486Z,6.46
2023-05-14T17:20:06.653Z,6.27
2023-05-14T17:22:34.784Z,6.27
2023-05-14T17:25:02.845Z,6.27
2023-05-14T17:27:33.449Z,6.08
2023-05-14T17:30:03.902Z,5.32
2023-05-14T17:32:31.617Z,5.70
2023-05-14T17:34:59.460Z,5.89
2023-05-14T17:37:28.096Z,6.08
2023-05-14T17:39:56.650Z,6.84
2023-05-14T17:42:25.013Z,5.89
2023-05-14T17:44:53.863Z,6.27
2023-05-14T17:47:22.212Z,6.08
2023-05-14T17:49:51.200Z,5.89
2023-05-14T17:52:19.158Z,7.03
2023-05-14T17:54:48.701Z,6.84
2023-05-14T17:57:17.151Z,6.46
2023-05-14T17:59:47.085Z,6.46
2023-05-14T18:02:14.495Z,6.27
2023-05-14T18:04:42.743Z,6.08
2023-05-14T18:07:11.565Z,7.03
2023-05-14T18:09:39.791Z,6.65
2023-05-14T18:12:13.138Z,7.03
2023-05-14T18:14:45.366Z,6.65
2023-05-14T18:17:13.641Z,6.46
2023-05-14T18:19:41.584Z,6.08
2023-05-14T18:22:11.468Z,6.46
2023-05-14T18:24:41.820Z,7.03
2023-05-14T18:27:11.778Z,6.46
2023-05-14T18:29:42.820Z,7.03
2023-05-14T18:32:12.700Z,6.84
2023-05-14T18:34:42.515Z,7.41
2023-05-14T18:37:12.442Z,7.03
2023-05-14T18:39:42.419Z,7.60
2023-05-14T18:42:15.694Z,7.03
2023-05-14T18:44:45.711Z,7.98
2023-05-14T18:47:15.669Z,7.03
2023-05-14T18:49:47.194Z,7.41
2023-05-14T18:52:16.934Z,8.55
2023-05-14T18:54:46.928Z,7.79
2023-05-14T18:57:16.899Z,8.17
2023-05-14T18:59:47.169Z,8.55
2023-05-14T19:02:17.135Z,8.36
2023-05-14T19:07:21.758Z,7.60
2023-05-14T19:09:51.660Z,8.55
2023-05-14T19:12:21.623Z,7.79
2023-05-14T19:14:49.900Z,8.36
2023-05-14T19:17:20.408Z,7.03
2023-05-14T19:19:50.270Z,7.98
2023-05-14T19:22:19.688Z,7.79
2023-05-14T19:24:47.016Z,8.36
2023-05-14T19:27:17.348Z,8.55
2023-05-14T19:29:47.082Z,8.93
2023-05-14T19:32:16.949Z,8.74
2023-05-14T19:34:46.943Z,8.74
2023-05-14T19:37:17.097Z,8.17
2023-05-14T19:39:47.257Z,8.36
2023-05-14T19:42:17.418Z,8.74
2023-05-14T19:44:47.169Z,8.55
2023-05-14T19:47:15.771Z,9.31
2023-05-14T19:49:44.070Z,9.69
2023-05-14T19:52:12.671Z,9.12
2023-05-14T19:54:40.972Z,10.26
2023-05-14T19:57:09.916Z,9.12
2023-05-14T19:59:39.206Z,9.31
2023-05-14T20:02:06.182Z,9.31
2023-05-14T20:04:34.946Z,9.12
2023-05-14T20:07:03.188Z,10.83
2023-05-14T20:09:31.522Z,8.93
2023-05-14T20:11:59.838Z,9.88
2023-05-14T20:14:28.216Z,9.50
2023-05-14T20:16:57.824Z,10.07
2023-05-14T20:19:26.764Z,10.26
2023-05-14T20:21:56.864Z,9.69
2023-05-14T20:24:25.192Z,10.45
2023-05-14T20:26:53.552Z,11.02
2023-05-14T20:29:21.983Z,10.64
2023-05-14T20:31:50.305Z,9.69
2023-05-14T20:34:19.196Z,10.45
2023-05-14T20:36:48.936Z,10.45
2023-05-14T20:39:18.780Z,10.07
2023-05-14T20:41:48.801Z,10.26
2023-05-14T20:44:20.477Z,10.64
2023-05-14T20:46:50.649Z,10.45
2023-05-14T20:49:20.630Z,11.02
2023-05-14T20:51:50.397Z,9.69
2023-05-14T20:54:20.202Z,11.02
2023-05-14T20:56:50.540Z,11.21
2023-05-14T20:59:20.471Z,10.45
2023-05-14T21:01:51.122Z,10.64
2023-05-14T21:04:21.223Z,10.64
2023-05-14T21:06:51.876Z,10.45
2023-05-14T21:09:23.268Z,10.45
2023-05-14T21:11:56.049Z,10.45
2023-05-14T21:14:25.961Z,10.45
2023-05-14T21:16:55.981Z,11.02
2023-05-14T21:19:25.816Z,11.21
2023-05-14T21:21:55.709Z,10.64
2023-05-14T21:24:25.553Z,11.59
2023-05-14T21:26:55.496Z,10.07
2023-05-14T21:29:25.452Z,11.40
2023-05-14T21:31:55.405Z,11.21
2023-05-14T21:34:25.494Z,12.54
2023-05-14T21:36:55.741Z,10.83
2023-05-14T21:39:25.583Z,11.40
2023-05-14T21:41:55.795Z,11.59
2023-05-14T21:44:24.256Z,12.16
2023-05-14T21:46:54.475Z,11.40
2023-05-14T21:49:22.910Z,11.59
2023-05-14T21:51:54.129Z,13.68
2023-05-14T21:54:23.651Z,12.16
2023-05-14T21:56:52.049Z,12.92
2023-05-14T21:59:21.090Z,12.35
2023-05-14T22:02:06.462Z,12.35
2023-05-14T22:04:37.188Z,13.11
2023-05-14T22:07:07.429Z,12.35
2023-05-14T22:09:37.192Z,13.49
2023-05-14T22:12:08.970Z,13.11
2023-05-14T22:14:37.445Z,12.54
2023-05-14T22:17:06.141Z,11.97
2023-05-14T22:19:34.222Z,13.11
2023-05-14T22:22:04.416Z,11.97
2023-05-14T22:24:32.442Z,13.49
2023-05-14T22:27:01.000Z,13.11
2023-05-14T22:29:30.143Z,12.92
2023-05-14T22:31:58.558Z,12.35
2023-05-14T22:34:27.004Z,13.49
2023-05-14T22:36:55.856Z,13.11
2023-05-14T22:39:24.304Z,13.30
2023-05-14T22:41:55.291Z,12.92
2023-05-14T22:44:25.792Z,12.92
2023-05-14T22:46:56.580Z,12.92
2023-05-14T22:49:26.644Z,14.06
2023-05-14T22:51:56.564Z,13.68
2023-05-14T22:54:26.414Z,15.01
2023-05-14T22:56:56.199Z,13.68
2023-05-14T22:59:26.088Z,13.30
2023-05-14T23:01:55.959Z,12.92
2023-05-14T23:04:26.125Z,13.49
2023-05-14T23:06:56.151Z,15.20
2023-05-14T23:09:26.042Z,14.25
2023-05-14T23:11:55.909Z,14.44
2023-05-14T23:14:25.954Z,13.30
2023-05-14T23:16:55.969Z,16.72
2023-05-14T23:19:26.670Z,14.25
2023-05-14T23:21:58.300Z,13.30
2023-05-14T23:24:28.101Z,14.25
2023-05-14T23:26:57.983Z,14.63
2023-05-14T23:29:27.828Z,14.06
2023-05-14T23:31:57.852Z,13.49
2023-05-14T23:34:27.859Z,14.63
2023-05-14T23:36:57.679Z,15.01
2023-05-14T23:39:27.877Z,14.63
2023-05-14T23:41:57.624Z,14.44
2023-05-14T23:44:27.542Z,14.25
2023-05-14T23:46:57.539Z,15.20
2023-05-14T23:49:27.752Z,14.63
2023-05-14T23:51:58.143Z,15.39
2023-05-14T23:54:26.221Z,15.01
2023-05-14T23:56:54.445Z,15.77
2023-05-14T23:59:22.996Z,15.96
